createdAt,value
2019-04-30T00:01:21.167Z,8.61
2019-04-30T00:04:06.713Z,8.58
2019-04-30T00:06:40.047Z,8.56
2019-04-30T00:09:15.110Z,8.58
2019-04-30T00:11:50.723Z,8.60
2019-04-30T00:14:25.333Z,8.62
2019-04-30T00:16:58.808Z,8.62
2019-04-30T00:19:32.220Z,8.61
2019-04-30T00:22:03.468Z,8.58
2019-04-30T00:24:39.974Z,8.66
2019-04-30T00:27:11.832Z,8.67
2019-04-30T00:29:45.818Z,8.61
2019-04-30T00:32:19.631Z,8.62
2019-04-30T00:34:53.219Z,8.64
2019-04-30T00:37:26.314Z,8.65
2019-04-30T00:40:00.164Z,8.67
2019-04-30T00:42:35.658Z,8.66
2019-04-30T00:45:10.914Z,8.69
2019-04-30T00:47:47.787Z,8.67
2019-04-30T00:50:20.560Z,8.73
2019-04-30T00:52:53.219Z,8.73
2019-04-30T00:55:26.012Z,8.76
2019-04-30T00:57:59.613Z,8.77
2019-04-30T01:00:35.260Z,8.74
2019-04-30T01:03:15.419Z,8.73
2019-04-30T01:05:48.914Z,8.72
2019-04-30T01:08:21.175Z,8.75
2019-04-30T01:10:55.639Z,8.73
2019-04-30T01:13:29.665Z,8.71
2019-04-30T01:16:03.083Z,8.75
2019-04-30T01:18:34.807Z,8.76
2019-04-30T01:21:11.047Z,8.76
2019-04-30T01:23:51.855Z,8.80
2019-04-30T01:26:18.718Z,8.75
2019-04-30T01:28:53.663Z,8.78
2019-04-30T01:31:31.628Z,8.80
2019-04-30T01:34:05.079Z,8.79
2019-04-30T01:36:39.235Z,8.82
2019-04-30T01:39:12.876Z,8.83
2019-04-30T01:41:46.551Z,8.83
2019-04-30T01:44:19.930Z,8.84
2019-04-30T01:46:51.832Z,8.84
2019-04-30T01:49:25.714Z,8.82
2019-04-30T01:52:00.960Z,8.85
2019-04-30T01:54:34.906Z,8.83
2019-04-30T01:57:20.239Z,8.87
2019-04-30T02:00:09.755Z,8.91
2019-04-30T02:02:43.520Z,8.90
2019-04-30T02:05:18.871Z,8.89
2019-04-30T02:07:52.859Z,8.87
2019-04-30T02:10:28.407Z,8.85
2019-04-30T02:13:01.535Z,8.87
2019-04-30T02:15:34.564Z,8.84
2019-04-30T02:18:08.727Z,8.88
2019-04-30T02:20:42.356Z,8.85
2019-04-30T02:23:15.317Z,8.83
2019-04-30T02:25:48.942Z,8.85
2019-04-30T02:28:21.901Z,8.86
2019-04-30T02:30:54.593Z,8.86
2019-04-30T02:33:30.580Z,8.87
2019-04-30T02:36:22.319Z,8.85
2019-04-30T02:39:02.312Z,8.84
2019-04-30T02:41:32.305Z,8.84
2019-04-30T02:44:09.735Z,8.86
2019-04-30T02:46:46.659Z,8.87
2019-04-30T02:49:21.336Z,8.89
2019-04-30T02:51:59.521Z,8.85
2019-04-30T02:54:35.585Z,8.85
2019-04-30T02:57:13.239Z,8.87
2019-04-30T03:00:04.163Z,8.85
2019-04-30T03:02:39.443Z,8.80
2019-04-30T03:05:13.628Z,8.79
2019-04-30T03:07:53.035Z,8.77
2019-04-30T03:10:23.405Z,8.77
2019-04-30T03:12:56.366Z,8.76
2019-04-30T03:15:29.917Z,8.75
2019-04-30T03:18:16.193Z,8.76
2019-04-30T03:21:09.784Z,8.73
2019-04-30T03:23:42.778Z,8.73
2019-04-30T03:26:16.694Z,8.71
2019-04-30T03:28:50.409Z,8.73
2019-04-30T03:31:24.084Z,8.72
2019-04-30T03:34:01.549Z,8.70
2019-04-30T03:36:32.998Z,8.70
2019-04-30T03:39:10.846Z,8.68
2019-04-30T03:41:43.251Z,8.69
2019-04-30T03:44:24.411Z,8.66
2019-04-30T03:46:51.489Z,8.62
2019-04-30T03:49:26.602Z,8.62
2019-04-30T03:52:00.633Z,8.59
2019-04-30T03:54:34.840Z,8.57
2019-04-30T03:57:10.789Z,8.54
2019-04-30T03:59:42.917Z,8.54
2019-04-30T04:02:33.755Z,8.56
2019-04-30T04:05:20.249Z,8.55
2019-04-30T04:08:19.570Z,8.55
2019-04-30T04:11:00.706Z,8.57
2019-04-30T04:13:34.536Z,8.52
2019-04-30T04:16:09.622Z,8.50
2019-04-30T04:18:43.448Z,8.48
2019-04-30T04:21:17.031Z,8.44
2019-04-30T04:23:49.913Z,8.45
2019-04-30T04:26:21.284Z,8.45
2019-04-30T04:28:54.047Z,8.44
2019-04-30T04:31:29.661Z,8.36
2019-04-30T04:34:02.628Z,8.41
2019-04-30T04:36:36.432Z,8.41
2019-04-30T04:39:11.411Z,8.43
2019-04-30T04:41:44.757Z,8.39
2019-04-30T04:44:20.641Z,8.36
2019-04-30T04:46:54.851Z,8.37
2019-04-30T04:49:30.533Z,8.41
2019-04-30T04:52:03.398Z,8.41
2019-04-30T04:54:36.397Z,8.38
2019-04-30T04:57:14.885Z,8.38
2019-04-30T04:59:43.689Z,8.29
2019-04-30T05:02:42.208Z,8.24
2019-04-30T05:05:19.240Z,8.21
2019-04-30T05:07:52.286Z,8.15
2019-04-30T05:10:25.644Z,8.05
2019-04-30T05:12:59.274Z,8.02
2019-04-30T05:15:32.492Z,8.04
2019-04-30T05:18:05.690Z,7.97
2019-04-30T05:20:39.902Z,7.95
2019-04-30T05:23:13.483Z,7.92
2019-04-30T05:25:46.730Z,7.98
2019-04-30T05:28:19.593Z,8.03
2019-04-30T05:30:53.097Z,8.11
2019-04-30T05:33:28.601Z,8.19
2019-04-30T05:36:01.445Z,8.17
2019-04-30T05:38:34.667Z,8.18
2019-04-30T05:41:06.543Z,8.20
2019-04-30T05:43:40.779Z,8.23
2019-04-30T05:46:14.219Z,8.28
2019-04-30T05:48:49.353Z,8.41
2019-04-30T05:51:22.991Z,8.41
2019-04-30T05:53:56.519Z,8.43
2019-04-30T05:56:30.477Z,8.40
2019-04-30T05:59:03.708Z,8.39
2019-04-30T06:01:36.785Z,8.34
2019-04-30T06:04:09.570Z,8.30
2019-04-30T06:06:42.255Z,8.31
2019-04-30T06:09:32.632Z,8.54
2019-04-30T06:12:21.023Z,8.52
2019-04-30T06:14:59.193Z,8.59
2019-04-30T06:17:32.789Z,8.58
2019-04-30T06:20:17.808Z,8.43
2019-04-30T06:22:43.698Z,8.38
2019-04-30T06:25:30.541Z,8.19
2019-04-30T06:27:51.716Z,8.12
2019-04-30T06:30:29.546Z,8.20
2019-04-30T06:33:03.072Z,8.24
2019-04-30T06:35:36.908Z,8.22
2019-04-30T06:38:11.091Z,8.29
2019-04-30T06:40:46.143Z,8.30
2019-04-30T06:43:22.585Z,8.51
2019-04-30T06:45:58.979Z,8.69
2019-04-30T06:48:34.271Z,8.75
2019-04-30T06:51:09.105Z,8.95
2019-04-30T06:53:42.733Z,9.09
2019-04-30T06:56:15.789Z,9.58
2019-04-30T06:58:52.414Z,10.05
2019-04-30T07:01:29.092Z,10.42
2019-04-30T07:04:02.271Z,10.63
2019-04-30T07:06:37.140Z,10.58
2019-04-30T07:09:51.728Z,10.19
2019-04-30T07:12:27.147Z,10.14
2019-04-30T07:14:55.004Z,10.18
2019-04-30T07:17:29.243Z,10.22
2019-04-30T07:20:02.484Z,10.23
2019-04-30T07:22:40.701Z,10.28
2019-04-30T07:25:11.807Z,10.38
2019-04-30T07:27:45.965Z,10.28
2019-04-30T07:30:31.060Z,10.27
2019-04-30T07:33:04.837Z,10.33
2019-04-30T07:35:39.900Z,11.12
2019-04-30T07:38:13.556Z,11.45
2019-04-30T07:40:46.660Z,11.33
2019-04-30T07:43:20.166Z,11.11
2019-04-30T07:45:54.654Z,10.98
2019-04-30T07:48:29.833Z,10.77
2019-04-30T07:51:03.364Z,10.74
2019-04-30T07:53:36.825Z,10.74
2019-04-30T07:58:45.638Z,11.33
2019-04-30T08:01:19.758Z,11.45
2019-04-30T08:04:08.919Z,12.26
2019-04-30T08:06:42.726Z,12.60
2019-04-30T08:09:16.475Z,12.43
2019-04-30T08:09:36.821Z,11.37
2019-04-30T08:11:49.852Z,13.23
2019-04-30T08:14:21.552Z,12.79
2019-04-30T08:16:56.307Z,12.35
2019-04-30T08:19:30.042Z,12.26
2019-04-30T08:22:03.722Z,12.26
2019-04-30T08:24:39.103Z,11.91
2019-04-30T08:27:13.006Z,12.01
2019-04-30T08:29:45.948Z,12.34
2019-04-30T08:32:20.125Z,12.45
2019-04-30T08:34:53.743Z,12.64
2019-04-30T08:37:28.880Z,12.69
2019-04-30T08:40:03.559Z,12.86
2019-04-30T08:42:39.764Z,13.27
2019-04-30T08:45:12.327Z,13.24
2019-04-30T08:47:45.798Z,12.81
2019-04-30T08:50:20.710Z,12.77
2019-04-30T08:52:54.948Z,12.79
2019-04-30T08:55:30.411Z,13.10
2019-04-30T08:58:09.757Z,13.34
2019-04-30T09:00:39.086Z,13.34
2019-04-30T09:03:12.719Z,13.54
2019-04-30T09:06:03.613Z,13.40
2019-04-30T09:08:39.915Z,13.24
2019-04-30T09:11:22.422Z,13.90
2019-04-30T09:13:48.874Z,14.49
2019-04-30T09:16:22.279Z,15.25
2019-04-30T09:18:54.037Z,15.02
2019-04-30T09:21:26.871Z,15.70
2019-04-30T09:23:59.853Z,15.67
2019-04-30T09:26:32.213Z,16.24
2019-04-30T09:29:06.463Z,14.87
2019-04-30T09:31:41.501Z,14.82
2019-04-30T09:34:17.909Z,16.13
2019-04-30T09:36:49.707Z,15.97
2019-04-30T09:39:23.107Z,16.21
2019-04-30T09:41:56.966Z,15.59
2019-04-30T09:44:33.315Z,16.44
2019-04-30T09:47:05.977Z,16.18
2019-04-30T09:49:41.440Z,17.04
2019-04-30T09:52:14.996Z,17.92
2019-04-30T09:54:50.033Z,17.37
2019-04-30T09:57:22.448Z,16.63
2019-04-30T09:59:56.462Z,16.00
2019-04-30T10:02:29.098Z,17.21
2019-04-30T10:05:02.795Z,17.57
2019-04-30T10:07:36.076Z,16.93
2019-04-30T10:10:11.974Z,16.26
2019-04-30T10:12:45.388Z,15.89
2019-04-30T10:15:52.938Z,16.77
2019-04-30T10:18:26.282Z,17.26
2019-04-30T10:21:00.937Z,17.51
2019-04-30T10:23:34.503Z,16.91
2019-04-30T10:26:07.802Z,17.25
2019-04-30T10:28:45.102Z,18.04
2019-04-30T10:31:18.759Z,18.03
2019-04-30T10:33:53.576Z,18.71
2019-04-30T10:36:26.899Z,19.38
2019-04-30T10:38:59.808Z,19.17
2019-04-30T10:41:32.898Z,18.47
2019-04-30T10:44:08.754Z,18.29
2019-04-30T10:46:41.229Z,17.43
2019-04-30T10:49:14.676Z,17.69
2019-04-30T10:51:47.897Z,18.95
2019-04-30T10:54:25.995Z,18.76
2019-04-30T10:56:55.926Z,17.86
2019-04-30T10:59:28.660Z,18.18
2019-04-30T11:02:01.124Z,18.13
2019-04-30T11:04:34.702Z,18.97
2019-04-30T11:07:08.610Z,18.40
2019-04-30T11:09:41.934Z,19.05
2019-04-30T11:12:15.639Z,19.67
2019-04-30T11:14:49.094Z,19.51
2019-04-30T11:17:22.637Z,19.46
2019-04-30T11:19:55.755Z,20.32
2019-04-30T11:22:29.181Z,20.90
2019-04-30T11:25:03.144Z,20.63
2019-04-30T11:27:36.478Z,20.73
2019-04-30T11:30:20.711Z,20.09
2019-04-30T11:32:44.676Z,19.46
2019-04-30T11:35:20.615Z,20.64
2019-04-30T11:37:54.176Z,20.85
2019-04-30T11:40:37.001Z,20.88
2019-04-30T11:43:07.896Z,21.21
2019-04-30T11:47:10.097Z,21.08
2019-04-30T11:49:42.812Z,21.57
2019-04-30T11:52:15.941Z,21.43
2019-04-30T11:54:53.883Z,21.46
2019-04-30T11:57:23.671Z,21.71
2019-04-30T11:59:56.800Z,21.52
2019-04-30T12:02:40.320Z,20.89
2019-04-30T12:05:16.134Z,20.30
2019-04-30T12:08:01.302Z,21.34
2019-04-30T12:10:46.597Z,22.01
2019-04-30T12:13:27.201Z,22.70
2019-04-30T12:16:00.818Z,21.83
2019-04-30T12:18:34.597Z,22.76
2019-04-30T12:21:07.826Z,22.25
2019-04-30T12:23:40.648Z,22.17
2019-04-30T12:26:14.005Z,22.43
2019-04-30T12:28:47.180Z,22.17
2019-04-30T12:31:21.107Z,22.87
2019-04-30T12:33:53.975Z,22.44
2019-04-30T12:36:28.931Z,21.98
2019-04-30T12:39:02.312Z,21.51
2019-04-30T12:41:35.709Z,22.57
2019-04-30T12:44:09.441Z,23.45
2019-04-30T12:46:43.517Z,22.75
2019-04-30T12:49:16.596Z,23.18
2019-04-30T12:52:14.897Z,23.03
2019-04-30T12:54:53.642Z,22.97
2019-04-30T12:57:41.556Z,23.24
2019-04-30T13:00:16.659Z,21.88
2019-04-30T13:02:49.848Z,22.23
2019-04-30T13:05:22.869Z,22.16
2019-04-30T13:07:56.741Z,23.00
2019-04-30T13:10:31.485Z,24.05
2019-04-30T13:13:05.452Z,23.09
2019-04-30T13:15:39.469Z,23.40
2019-04-30T13:18:12.105Z,23.05
2019-04-30T13:20:45.260Z,23.75
2019-04-30T13:23:18.802Z,24.03
2019-04-30T13:25:53.349Z,23.95
2019-04-30T13:28:27.937Z,23.40
2019-04-30T13:31:01.441Z,23.49
2019-04-30T13:33:43.063Z,23.88
2019-04-30T13:36:19.726Z,23.21
2019-04-30T13:38:59.495Z,24.22
2019-04-30T13:41:42.980Z,23.37
2019-04-30T13:44:15.934Z,21.74
2019-04-30T13:46:48.323Z,22.58
2019-04-30T13:49:21.845Z,23.47
2019-04-30T13:51:54.928Z,21.98
2019-04-30T13:54:27.879Z,22.72
2019-04-30T13:57:01.019Z,23.08
2019-04-30T13:59:34.221Z,23.15
2019-04-30T14:02:08.713Z,22.23
2019-04-30T14:04:59.457Z,23.31
2019-04-30T14:07:59.716Z,24.08
2019-04-30T14:10:35.992Z,23.73
2019-04-30T14:13:10.800Z,24.47
2019-04-30T14:15:45.296Z,24.47
2019-04-30T14:18:28.410Z,24.12
2019-04-30T14:20:54.307Z,23.94
2019-04-30T14:23:28.636Z,24.28
2019-04-30T14:26:01.968Z,24.20
2019-04-30T14:28:36.212Z,24.16
2019-04-30T14:31:13.007Z,23.81
2019-04-30T14:33:46.783Z,24.52
2019-04-30T14:36:20.658Z,24.36
2019-04-30T14:38:54.812Z,24.45
2019-04-30T14:41:31.872Z,24.34
2019-04-30T14:44:08.692Z,23.91
2019-04-30T14:46:59.610Z,24.80
2019-04-30T14:49:59.757Z,25.69
2019-04-30T14:52:25.342Z,24.57
2019-04-30T14:55:06.363Z,24.64
2019-04-30T14:57:56.592Z,24.58
2019-04-30T15:00:49.638Z,25.00
2019-04-30T15:03:23.472Z,25.55
2019-04-30T15:05:56.457Z,26.01
2019-04-30T15:08:30.262Z,24.79
2019-04-30T15:11:03.333Z,23.88
2019-04-30T15:13:36.011Z,25.33
2019-04-30T15:16:09.179Z,23.95
2019-04-30T15:18:42.250Z,24.03
2019-04-30T15:21:15.436Z,24.47
2019-04-30T15:24:01.764Z,24.78
2019-04-30T15:26:34.387Z,24.87
2019-04-30T15:29:10.187Z,25.74
2019-04-30T15:31:42.740Z,24.61
2019-04-30T15:34:15.865Z,24.50
2019-04-30T15:36:49.791Z,24.46
2019-04-30T15:39:35.055Z,25.75
2019-04-30T15:42:08.937Z,26.37
2019-04-30T15:44:45.246Z,25.19
2019-04-30T15:47:19.144Z,25.33
2019-04-30T15:49:53.317Z,25.90
2019-04-30T15:52:25.718Z,25.25
2019-04-30T15:54:59.203Z,24.83
2019-04-30T15:57:32.395Z,24.95
2019-04-30T16:00:06.625Z,25.78
2019-04-30T16:02:56.375Z,25.82
2019-04-30T16:05:27.130Z,26.59
2019-04-30T16:08:06.176Z,26.64
2019-04-30T16:11:10.371Z,25.34
2019-04-30T16:14:19.687Z,25.40
2019-04-30T16:17:01.087Z,26.35
2019-04-30T16:19:33.609Z,26.12
2019-04-30T16:22:07.717Z,25.00
2019-04-30T16:24:40.447Z,25.17
2019-04-30T16:27:13.698Z,25.25
2019-04-30T16:29:49.594Z,24.96
2019-04-30T16:32:24.367Z,24.21
2019-04-30T16:34:57.059Z,26.06
2019-04-30T16:37:31.345Z,25.62
2019-04-30T16:40:03.944Z,25.15
2019-04-30T16:42:38.931Z,25.20
2019-04-30T16:45:13.634Z,26.24
2019-04-30T16:47:47.408Z,25.38
2019-04-30T16:50:20.889Z,24.37
2019-04-30T16:52:54.634Z,25.80
2019-04-30T16:55:29.305Z,24.26
2019-04-30T16:58:04.081Z,23.38
2019-04-30T17:00:39.170Z,22.86
2019-04-30T17:03:31.581Z,22.22
2019-04-30T17:06:11.544Z,22.12
2019-04-30T17:08:51.442Z,21.90
2019-04-30T17:11:41.809Z,21.18
2019-04-30T17:14:25.170Z,20.91
2019-04-30T17:16:59.752Z,20.94
2019-04-30T17:19:33.125Z,20.27
2019-04-30T17:22:06.033Z,19.68
2019-04-30T17:24:39.783Z,19.57
2019-04-30T17:27:19.385Z,19.15
2019-04-30T17:29:48.636Z,18.53
2019-04-30T17:32:22.496Z,18.96
2019-04-30T17:34:58.853Z,18.36
2019-04-30T17:37:32.773Z,18.02
2019-04-30T17:40:09.253Z,18.02
2019-04-30T17:42:42.612Z,17.52
2019-04-30T17:45:19.532Z,17.63
2019-04-30T17:47:52.966Z,17.48
2019-04-30T17:50:25.726Z,17.36
2019-04-30T17:53:00.461Z,17.06
2019-04-30T17:55:31.835Z,16.74
2019-04-30T17:58:04.509Z,16.70
2019-04-30T18:00:39.416Z,16.54
2019-04-30T18:03:12.503Z,16.51
2019-04-30T18:05:45.188Z,16.02
2019-04-30T18:08:17.218Z,15.79
2019-04-30T18:10:49.727Z,15.48
2019-04-30T18:13:21.299Z,15.62
2019-04-30T18:15:54.182Z,15.88
2019-04-30T18:18:51.061Z,15.38
2019-04-30T18:21:42.624Z,15.24
2019-04-30T18:24:40.935Z,15.07
2019-04-30T18:27:21.004Z,14.65
2019-04-30T18:29:53.277Z,14.29
2019-04-30T18:32:29.664Z,14.01
2019-04-30T18:35:02.056Z,13.87
2019-04-30T18:37:38.721Z,13.93
2019-04-30T18:40:13.373Z,13.98
2019-04-30T18:42:46.847Z,13.78
2019-04-30T18:45:20.218Z,13.35
2019-04-30T18:47:53.339Z,13.31
2019-04-30T18:50:26.511Z,13.24
2019-04-30T18:53:01.627Z,12.72
2019-04-30T18:55:35.335Z,12.47
2019-04-30T18:58:08.948Z,12.41
2019-04-30T19:00:45.245Z,12.55
2019-04-30T19:03:21.788Z,12.96
2019-04-30T19:05:59.332Z,12.21
2019-04-30T19:08:40.732Z,12.09
2019-04-30T19:11:33.358Z,11.92
2019-04-30T19:14:24.182Z,11.92
2019-04-30T19:17:20.791Z,11.49
2019-04-30T19:20:31.261Z,11.37
2019-04-30T19:23:05.096Z,11.15
2019-04-30T19:25:38.873Z,10.82
2019-04-30T19:28:14.563Z,10.80
2019-04-30T19:30:57.373Z,10.65
2019-04-30T19:33:23.712Z,10.79
2019-04-30T19:35:58.613Z,10.74
2019-04-30T19:38:32.707Z,10.37
2019-04-30T19:41:06.056Z,10.21
2019-04-30T19:43:39.084Z,10.25
2019-04-30T19:46:12.167Z,10.29
2019-04-30T19:48:43.256Z,10.34
2019-04-30T19:51:16.551Z,10.35
2019-04-30T19:53:49.916Z,10.12
2019-04-30T19:56:22.283Z,10.12
2019-04-30T19:59:02.105Z,10.09
2019-04-30T20:01:29.923Z,10.31
2019-04-30T20:04:02.648Z,9.99
2019-04-30T20:06:36.093Z,9.81
2019-04-30T20:09:10.600Z,10.05
2019-04-30T20:11:44.042Z,9.98
2019-04-30T20:14:18.545Z,9.55
2019-04-30T20:16:50.599Z,9.35
2019-04-30T20:19:24.713Z,9.19
2019-04-30T20:21:59.422Z,9.14
2019-04-30T20:24:33.035Z,8.97
2019-04-30T20:27:09.507Z,8.92
2019-04-30T20:29:41.258Z,8.82
2019-04-30T20:32:15.285Z,8.76
2019-04-30T20:34:48.938Z,8.78
2019-04-30T20:37:23.296Z,8.92
2019-04-30T20:40:15.835Z,9.07
2019-04-30T20:42:50.010Z,8.86
2019-04-30T20:45:23.739Z,8.70
2019-04-30T20:47:59.187Z,8.57
2019-04-30T20:50:33.282Z,8.45
2019-04-30T20:53:08.722Z,8.19
2019-04-30T20:55:42.545Z,8.11
2019-04-30T20:58:16.378Z,8.30
2019-04-30T21:01:01.037Z,8.01
2019-04-30T21:03:26.653Z,7.99
2019-04-30T21:06:00.668Z,7.99
2019-04-30T21:08:34.364Z,7.75
2019-04-30T21:11:06.481Z,7.80
2019-04-30T21:13:40.027Z,7.71
2019-04-30T21:16:13.138Z,7.70
2019-04-30T21:18:46.499Z,7.59
2019-04-30T21:21:20.820Z,7.41
2019-04-30T21:23:53.879Z,7.56
2019-04-30T21:26:26.280Z,7.52
2019-04-30T21:29:10.576Z,7.47
2019-04-30T21:32:02.948Z,7.28
2019-04-30T21:34:54.927Z,7.21
2019-04-30T21:37:29.002Z,7.24
2019-04-30T21:40:02.211Z,7.31
2019-04-30T21:42:35.378Z,7.24
2019-04-30T21:45:06.842Z,7.22
2019-04-30T21:47:39.542Z,7.20
2019-04-30T21:50:12.516Z,7.15
2019-04-30T21:52:44.545Z,7.14
2019-04-30T21:55:17.050Z,6.96
2019-04-30T21:57:50.307Z,6.85
2019-04-30T22:00:40.366Z,6.82
2019-04-30T22:03:13.270Z,6.87
2019-04-30T22:05:45.000Z,6.79
2019-04-30T22:08:18.921Z,6.68
2019-04-30T22:10:52.367Z,6.58
2019-04-30T22:13:25.514Z,6.45
2019-04-30T22:16:00.875Z,6.34
2019-04-30T22:18:32.641Z,6.42
2019-04-30T22:21:05.667Z,6.35
2019-04-30T22:23:39.285Z,6.29
2019-04-30T22:26:12.578Z,6.15
2019-04-30T22:28:45.877Z,6.06
2019-04-30T22:31:19.929Z,6.02
2019-04-30T22:33:53.320Z,5.95
2019-04-30T22:36:31.231Z,5.99
2019-04-30T22:39:13.963Z,5.82
2019-04-30T22:41:46.143Z,5.82
2019-04-30T22:44:19.452Z,6.03
2019-04-30T22:46:53.349Z,5.94
2019-04-30T22:49:27.106Z,5.78
2019-04-30T22:52:00.553Z,5.60
2019-04-30T22:54:32.453Z,5.73
2019-04-30T22:57:04.425Z,5.55
2019-04-30T22:59:49.491Z,5.48
2019-04-30T23:02:24.834Z,5.43
2019-04-30T23:04:58.330Z,5.50
2019-04-30T23:07:29.958Z,5.44
2019-04-30T23:10:02.545Z,5.38
2019-04-30T23:12:34.878Z,5.39
2019-04-30T23:15:08.704Z,5.32
2019-04-30T23:17:42.123Z,5.30
2019-04-30T23:20:14.189Z,5.25
2019-04-30T23:22:46.702Z,5.19
2019-04-30T23:25:19.944Z,5.16
2019-04-30T23:27:51.333Z,5.15
2019-04-30T23:30:24.285Z,5.11
2019-04-30T23:32:56.460Z,5.09
2019-04-30T23:35:32.419Z,5.02
2019-04-30T23:38:05.753Z,4.95
2019-04-30T23:40:51.739Z,4.94
2019-04-30T23:43:24.702Z,5.04
2019-04-30T23:45:57.805Z,5.01
2019-04-30T23:48:31.746Z,5.01
2019-04-30T23:51:04.673Z,4.94
2019-04-30T23:53:37.860Z,4.85
2019-04-30T23:56:09.303Z,4.93
2019-04-30T23:58:41.896Z,5.07
